createdAt,value
2017-06-23T00:00:21.710Z,0
2017-06-23T00:00:47.816Z,0
2017-06-23T00:01:13.929Z,0
2017-06-23T00:01:40.030Z,0
2017-06-23T00:02:06.138Z,0
2017-06-23T00:02:32.253Z,0
2017-06-23T00:02:58.376Z,0
2017-06-23T00:03:24.472Z,0
2017-06-23T00:03:50.577Z,0
2017-06-23T00:04:16.685Z,0
2017-06-23T00:04:42.799Z,0
2017-06-23T00:05:08.924Z,0
2017-06-23T00:05:35.036Z,0
2017-06-23T00:06:01.125Z,0
2017-06-23T00:06:27.273Z,0
2017-06-23T00:06:53.381Z,0
2017-06-23T00:07:19.475Z,0
2017-06-23T00:07:45.568Z,0
2017-06-23T00:08:11.678Z,0
2017-06-23T00:08:37.774Z,0
2017-06-23T00:09:03.877Z,0
2017-06-23T00:09:29.996Z,0
2017-06-23T00:09:56.094Z,0
2017-06-23T00:10:22.229Z,0
2017-06-23T00:10:48.326Z,0
2017-06-23T00:11:14.443Z,0
2017-06-23T00:11:40.579Z,0
2017-06-23T00:12:06.678Z,0
2017-06-23T00:12:32.797Z,0
2017-06-23T00:12:58.902Z,0
2017-06-23T00:13:25.032Z,0
2017-06-23T00:13:51.124Z,0
2017-06-23T00:14:17.228Z,0
2017-06-23T00:14:43.336Z,0
2017-06-23T00:15:09.424Z,0
2017-06-23T00:15:35.525Z,0
2017-06-23T00:16:01.633Z,0
2017-06-23T00:16:27.748Z,0
2017-06-23T00:16:53.847Z,0
2017-06-23T00:17:19.955Z,0
2017-06-23T00:17:46.105Z,0
2017-06-23T00:18:12.224Z,0
2017-06-23T00:18:38.335Z,0
2017-06-23T00:19:04.435Z,0
2017-06-23T00:19:30.549Z,0
2017-06-23T00:19:56.684Z,0
2017-06-23T00:20:22.803Z,0
2017-06-23T00:20:48.911Z,0
2017-06-23T00:21:15.007Z,0
2017-06-23T00:21:41.126Z,0
2017-06-23T00:22:07.262Z,0
2017-06-23T00:22:33.389Z,0
2017-06-23T00:22:59.481Z,0
2017-06-23T00:23:25.641Z,0
2017-06-23T00:23:51.742Z,0
2017-06-23T00:24:17.881Z,0
2017-06-23T00:24:44.014Z,0
2017-06-23T00:25:10.120Z,0
2017-06-23T00:25:36.242Z,0
2017-06-23T00:26:02.369Z,0
2017-06-23T00:26:28.508Z,0
2017-06-23T00:26:54.615Z,0
2017-06-23T00:27:20.715Z,0
2017-06-23T00:27:46.831Z,0
2017-06-23T00:28:12.934Z,0
2017-06-23T00:28:39.040Z,0
2017-06-23T00:29:05.130Z,0
2017-06-23T00:29:31.256Z,0
2017-06-23T00:29:57.391Z,0
2017-06-23T00:30:23.483Z,0
2017-06-23T00:30:49.587Z,0
2017-06-23T00:31:15.708Z,0
2017-06-23T00:31:41.813Z,0
2017-06-23T00:32:07.946Z,0
2017-06-23T00:32:34.051Z,0
2017-06-23T00:33:00.152Z,0
2017-06-23T00:33:26.260Z,0
2017-06-23T00:33:52.354Z,0
2017-06-23T00:34:18.453Z,0
2017-06-23T00:34:44.584Z,0
2017-06-23T00:35:10.678Z,0
2017-06-23T00:35:36.794Z,0
2017-06-23T00:36:02.904Z,0
2017-06-23T00:36:29.000Z,0
2017-06-23T00:36:55.129Z,0
2017-06-23T00:37:21.218Z,0
2017-06-23T00:37:47.317Z,0
2017-06-23T00:38:13.425Z,0
2017-06-23T00:38:39.522Z,0
2017-06-23T00:39:05.613Z,0
2017-06-23T00:39:31.776Z,0
2017-06-23T00:39:57.875Z,0
2017-06-23T00:40:23.967Z,0
2017-06-23T00:40:50.077Z,0
2017-06-23T00:41:16.209Z,0
2017-06-23T00:41:42.304Z,0
2017-06-23T00:42:08.407Z,0
2017-06-23T00:42:34.522Z,0
2017-06-23T00:43:00.633Z,0
2017-06-23T00:43:26.734Z,0
2017-06-23T00:43:52.826Z,0
2017-06-23T00:44:18.957Z,0
2017-06-23T00:44:45.083Z,0
2017-06-23T00:45:11.174Z,0
2017-06-23T00:45:37.303Z,0
2017-06-23T00:46:03.412Z,0
2017-06-23T00:46:29.526Z,0
2017-06-23T00:46:55.652Z,0
2017-06-23T00:47:21.759Z,0
2017-06-23T00:47:47.850Z,0
2017-06-23T00:48:13.953Z,0
2017-06-23T00:48:40.071Z,0
2017-06-23T00:49:06.176Z,0
2017-06-23T00:49:32.283Z,0
2017-06-23T00:49:58.370Z,0
2017-06-23T00:50:24.473Z,0
2017-06-23T00:50:50.581Z,0
2017-06-23T00:51:16.698Z,0
2017-06-23T00:51:42.796Z,0
2017-06-23T00:52:08.902Z,0
2017-06-23T00:52:34.998Z,0
2017-06-23T00:53:01.091Z,0
2017-06-23T00:53:27.194Z,0
2017-06-23T00:53:53.297Z,0
2017-06-23T00:54:19.402Z,0
2017-06-23T00:54:45.495Z,0
2017-06-23T00:55:11.595Z,0
2017-06-23T00:55:37.703Z,0
2017-06-23T00:56:03.826Z,0
2017-06-23T00:56:29.916Z,0
2017-06-23T00:56:56.027Z,0
2017-06-23T00:57:22.149Z,0
2017-06-23T00:57:48.243Z,0
2017-06-23T00:58:14.379Z,0
2017-06-23T00:58:40.479Z,0
2017-06-23T00:59:06.573Z,0
2017-06-23T00:59:32.677Z,0
2017-06-23T00:59:58.784Z,0
2017-06-23T01:00:24.899Z,0
2017-06-23T01:00:51.000Z,0
2017-06-23T01:01:17.136Z,0
2017-06-23T01:01:43.228Z,0
2017-06-23T01:02:09.325Z,0
2017-06-23T01:02:35.460Z,0
2017-06-23T01:03:01.559Z,0
2017-06-23T01:03:27.648Z,0
2017-06-23T01:03:53.760Z,0
2017-06-23T01:04:19.886Z,0
2017-06-23T01:04:45.991Z,0
2017-06-23T01:05:12.084Z,0
2017-06-23T01:05:38.181Z,0
2017-06-23T01:06:04.314Z,0
2017-06-23T01:06:30.411Z,0
2017-06-23T01:06:56.528Z,0
2017-06-23T01:07:22.638Z,0
2017-06-23T01:07:48.796Z,0
2017-06-23T01:08:14.907Z,0
2017-06-23T01:08:41.017Z,0
2017-06-23T01:09:07.115Z,0
2017-06-23T01:09:33.233Z,0
2017-06-23T01:09:59.339Z,0
2017-06-23T01:10:25.432Z,0
2017-06-23T01:10:51.567Z,0
2017-06-23T01:11:17.665Z,0
2017-06-23T01:11:43.756Z,0
2017-06-23T01:12:09.863Z,0
2017-06-23T01:12:36.009Z,0
2017-06-23T01:13:02.110Z,0
2017-06-23T01:13:28.214Z,0
2017-06-23T01:13:54.322Z,0
2017-06-23T01:14:20.409Z,0
2017-06-23T01:14:46.538Z,0
2017-06-23T01:15:12.678Z,0
2017-06-23T01:15:38.794Z,0
2017-06-23T01:16:04.898Z,0
2017-06-23T01:16:30.989Z,0
2017-06-23T01:16:57.093Z,0
2017-06-23T01:17:23.202Z,0
2017-06-23T01:17:49.292Z,0
2017-06-23T01:18:15.395Z,0
2017-06-23T01:18:41.502Z,0
2017-06-23T01:19:07.617Z,0
2017-06-23T01:19:33.717Z,0
2017-06-23T01:19:59.854Z,0
2017-06-23T01:20:26.033Z,0
2017-06-23T01:20:52.123Z,0
2017-06-23T01:21:18.249Z,0
2017-06-23T01:21:44.375Z,0
2017-06-23T01:22:10.483Z,0
2017-06-23T01:22:36.574Z,0
2017-06-23T01:23:02.695Z,0
2017-06-23T01:23:28.830Z,0
2017-06-23T01:23:54.924Z,0
2017-06-23T01:24:21.015Z,0
2017-06-23T01:24:47.127Z,0
2017-06-23T01:25:13.251Z,0
2017-06-23T01:25:39.345Z,0
2017-06-23T01:26:05.453Z,0
2017-06-23T01:26:31.553Z,0
2017-06-23T01:26:57.707Z,0
2017-06-23T01:27:23.801Z,0
2017-06-23T01:27:49.890Z,0
2017-06-23T01:28:16.001Z,0
2017-06-23T01:28:42.101Z,0
2017-06-23T01:29:08.191Z,0
2017-06-23T01:29:34.298Z,0
2017-06-23T01:30:00.399Z,0
2017-06-23T01:30:26.491Z,0
2017-06-23T01:30:52.597Z,0
2017-06-23T01:31:18.704Z,0
2017-06-23T01:31:44.792Z,0
2017-06-23T01:32:10.891Z,0
2017-06-23T01:32:37.013Z,0
2017-06-23T01:33:03.120Z,0
2017-06-23T01:33:29.249Z,0
2017-06-23T01:33:55.368Z,0
2017-06-23T01:34:21.471Z,0
2017-06-23T01:34:47.579Z,0
2017-06-23T01:35:13.667Z,0
2017-06-23T01:35:39.768Z,0
2017-06-23T01:36:05.875Z,0
2017-06-23T01:36:31.992Z,0
2017-06-23T01:36:58.092Z,0
2017-06-23T01:37:24.199Z,0
2017-06-23T01:37:50.293Z,0
2017-06-23T01:38:16.400Z,0
2017-06-23T01:38:42.516Z,0
2017-06-23T01:39:08.618Z,0
2017-06-23T01:39:34.725Z,0
2017-06-23T01:40:00.846Z,0
2017-06-23T01:40:26.943Z,0
2017-06-23T01:40:53.079Z,0
2017-06-23T01:41:19.173Z,0
2017-06-23T01:41:45.264Z,0
2017-06-23T01:42:11.404Z,0
2017-06-23T01:42:37.530Z,0
2017-06-23T01:43:03.647Z,0
2017-06-23T01:43:29.783Z,0
2017-06-23T01:43:55.884Z,0
2017-06-23T01:44:22.004Z,0
2017-06-23T01:44:48.135Z,0
2017-06-23T01:45:14.271Z,0
2017-06-23T01:45:40.361Z,0
2017-06-23T01:46:06.486Z,0
2017-06-23T01:46:32.620Z,0
2017-06-23T01:46:58.713Z,0
2017-06-23T01:47:24.813Z,0
2017-06-23T01:47:50.920Z,0
2017-06-23T01:48:17.015Z,0
2017-06-23T01:48:43.128Z,0
2017-06-23T01:49:09.233Z,0
2017-06-23T01:49:35.332Z,0
2017-06-23T01:50:01.466Z,0
2017-06-23T01:50:27.562Z,0
2017-06-23T01:50:53.669Z,0
2017-06-23T01:51:19.768Z,0
2017-06-23T01:51:45.914Z,0
2017-06-23T01:52:12.005Z,0
2017-06-23T01:52:38.117Z,0
2017-06-23T01:53:04.216Z,0
2017-06-23T01:53:30.307Z,0
2017-06-23T01:53:56.414Z,0
2017-06-23T01:54:22.545Z,0
2017-06-23T01:54:48.646Z,0
2017-06-23T01:55:14.740Z,0
2017-06-23T01:55:40.834Z,0
2017-06-23T01:56:06.942Z,0
2017-06-23T01:56:33.037Z,0
2017-06-23T01:56:59.128Z,0
2017-06-23T01:57:25.237Z,0
2017-06-23T01:57:51.366Z,0
2017-06-23T01:58:17.457Z,0
2017-06-23T01:58:43.589Z,0
2017-06-23T01:59:09.696Z,0
2017-06-23T01:59:35.785Z,0
2017-06-23T02:00:01.888Z,0
2017-06-23T02:00:28.010Z,0
2017-06-23T02:00:54.116Z,0
2017-06-23T02:01:20.217Z,0
2017-06-23T02:01:46.310Z,0
2017-06-23T02:02:12.464Z,0
2017-06-23T02:02:38.572Z,0
2017-06-23T02:03:04.658Z,0
2017-06-23T02:03:30.784Z,0
2017-06-23T02:03:56.918Z,0
2017-06-23T02:04:23.011Z,0
2017-06-23T02:04:49.136Z,0
2017-06-23T02:05:15.244Z,0
2017-06-23T02:05:41.368Z,0
2017-06-23T02:06:07.501Z,0
2017-06-23T02:06:33.640Z,0
2017-06-23T02:06:59.738Z,0
2017-06-23T02:07:25.872Z,0
2017-06-23T02:07:51.967Z,0
2017-06-23T02:08:18.065Z,0
2017-06-23T02:08:44.199Z,0
2017-06-23T02:09:10.318Z,0
2017-06-23T02:09:36.436Z,0
2017-06-23T02:10:02.548Z,0
2017-06-23T02:10:28.670Z,0
2017-06-23T02:10:54.760Z,0
2017-06-23T02:11:20.870Z,0
2017-06-23T02:11:46.987Z,0
2017-06-23T02:12:13.123Z,0
2017-06-23T02:12:39.220Z,0
2017-06-23T02:13:05.312Z,0
2017-06-23T02:13:31.420Z,0
2017-06-23T02:13:57.517Z,0
2017-06-23T02:14:23.632Z,0
2017-06-23T02:14:49.729Z,0
2017-06-23T02:15:15.851Z,0
2017-06-23T02:15:41.958Z,0
2017-06-23T02:16:08.053Z,0
2017-06-23T02:16:34.170Z,0
2017-06-23T02:17:00.298Z,0
2017-06-23T02:17:26.398Z,0
2017-06-23T02:17:52.532Z,0
2017-06-23T02:18:18.623Z,0
2017-06-23T02:18:44.722Z,0
2017-06-23T02:19:10.829Z,0
2017-06-23T02:19:36.972Z,0
2017-06-23T02:20:03.062Z,0
2017-06-23T02:20:29.200Z,0
2017-06-23T02:20:55.300Z,0
2017-06-23T02:21:21.393Z,0
2017-06-23T02:21:47.525Z,0
2017-06-23T02:22:13.627Z,0
2017-06-23T02:22:39.779Z,0
2017-06-23T02:23:05.870Z,0
2017-06-23T02:23:31.960Z,0
2017-06-23T02:23:58.072Z,0
2017-06-23T02:24:24.170Z,0
2017-06-23T02:24:50.287Z,0
2017-06-23T02:25:16.396Z,0
2017-06-23T02:25:42.495Z,0
2017-06-23T02:26:08.613Z,0
2017-06-23T02:26:34.717Z,0
2017-06-23T02:27:00.823Z,0
2017-06-23T02:27:26.913Z,0
2017-06-23T02:27:53.039Z,0
2017-06-23T02:28:19.145Z,0
2017-06-23T02:28:45.238Z,0
2017-06-23T02:29:11.363Z,0
2017-06-23T02:29:37.500Z,0
2017-06-23T02:30:03.594Z,0
2017-06-23T02:30:29.712Z,0
2017-06-23T02:30:55.822Z,0
2017-06-23T02:31:21.922Z,0
2017-06-23T02:31:48.013Z,0
2017-06-23T02:32:14.147Z,0
2017-06-23T02:32:40.248Z,0
2017-06-23T02:33:06.363Z,0
2017-06-23T02:33:32.468Z,0
2017-06-23T02:33:58.561Z,0
2017-06-23T02:34:24.670Z,0
2017-06-23T02:34:50.770Z,0
2017-06-23T02:35:16.862Z,0
2017-06-23T02:35:42.997Z,0
2017-06-23T02:36:09.124Z,0
2017-06-23T02:36:35.263Z,0
2017-06-23T02:37:01.366Z,4
2017-06-23T02:37:27.502Z,0
2017-06-23T02:37:53.619Z,4
2017-06-23T02:38:19.721Z,4
2017-06-23T02:38:45.854Z,4
2017-06-23T02:39:11.948Z,4
2017-06-23T02:39:38.052Z,4
2017-06-23T02:40:04.194Z,4
2017-06-23T02:40:30.325Z,4
2017-06-23T02:40:56.433Z,0
2017-06-23T02:41:22.548Z,4
2017-06-23T02:41:48.647Z,4
2017-06-23T02:42:14.779Z,4
2017-06-23T02:42:40.870Z,4
2017-06-23T02:43:06.992Z,4
2017-06-23T02:43:33.102Z,4
2017-06-23T02:43:59.196Z,4
2017-06-23T02:44:25.289Z,4
2017-06-23T02:44:51.421Z,4
2017-06-23T02:45:17.574Z,4
2017-06-23T02:45:43.706Z,4
2017-06-23T02:46:09.799Z,8
2017-06-23T02:46:35.897Z,4
2017-06-23T02:47:02.031Z,4
2017-06-23T02:47:28.124Z,4
2017-06-23T02:47:54.241Z,8
2017-06-23T02:48:20.353Z,8
2017-06-23T02:48:46.478Z,8
2017-06-23T02:49:12.595Z,8
2017-06-23T02:49:38.703Z,8
2017-06-23T02:50:04.805Z,8
2017-06-23T02:50:30.919Z,8
2017-06-23T02:50:57.023Z,8
2017-06-23T02:51:23.129Z,4
2017-06-23T02:51:49.219Z,8
2017-06-23T02:52:15.344Z,8
2017-06-23T02:52:41.455Z,12
2017-06-23T02:53:07.546Z,12
2017-06-23T02:53:33.645Z,8
2017-06-23T02:53:59.752Z,12
2017-06-23T02:54:25.874Z,12
2017-06-23T02:54:51.988Z,12
2017-06-23T02:55:18.098Z,12
2017-06-23T02:55:44.196Z,12
2017-06-23T02:56:10.301Z,16
2017-06-23T02:56:36.419Z,12
2017-06-23T02:57:02.516Z,16
2017-06-23T02:57:28.621Z,16
2017-06-23T02:57:54.741Z,16
2017-06-23T02:58:20.858Z,20
2017-06-23T02:58:46.969Z,20
2017-06-23T02:59:13.146Z,20
2017-06-23T02:59:39.239Z,20
2017-06-23T03:00:05.368Z,24
2017-06-23T03:00:31.496Z,28
2017-06-23T03:00:57.588Z,28
2017-06-23T03:01:23.690Z,32
2017-06-23T03:01:49.778Z,36
2017-06-23T03:02:15.891Z,36
2017-06-23T03:02:41.987Z,36
2017-06-23T03:03:08.106Z,44
2017-06-23T03:03:34.214Z,48
2017-06-23T03:04:00.315Z,56
2017-06-23T03:04:26.429Z,60
2017-06-23T03:04:52.561Z,64
2017-06-23T03:05:18.667Z,68
2017-06-23T03:05:44.756Z,72
2017-06-23T03:06:10.903Z,80
2017-06-23T03:06:37.010Z,84
2017-06-23T03:07:03.128Z,92
2017-06-23T03:07:29.233Z,100
2017-06-23T03:07:55.326Z,104
2017-06-23T03:08:21.430Z,108
2017-06-23T03:08:47.538Z,104
2017-06-23T03:09:13.652Z,108
2017-06-23T03:09:39.752Z,108
2017-06-23T03:10:05.860Z,108
2017-06-23T03:10:31.951Z,112
2017-06-23T03:10:58.051Z,120
2017-06-23T03:11:24.212Z,120
2017-06-23T03:11:50.610Z,124
2017-06-23T03:12:16.701Z,124
2017-06-23T03:12:42.838Z,124
2017-06-23T03:13:08.937Z,128
2017-06-23T03:13:35.029Z,132
2017-06-23T03:14:01.137Z,136
2017-06-23T03:14:27.238Z,144
2017-06-23T03:14:53.366Z,152
2017-06-23T03:15:19.459Z,156
2017-06-23T03:15:45.567Z,164
2017-06-23T03:16:11.705Z,180
2017-06-23T03:16:37.807Z,192
2017-06-23T03:17:03.914Z,208
2017-06-23T03:17:30.029Z,220
2017-06-23T03:17:56.152Z,232
2017-06-23T03:18:22.249Z,252
2017-06-23T03:18:48.354Z,268
2017-06-23T03:19:14.461Z,280
2017-06-23T03:19:40.573Z,296
2017-06-23T03:20:06.700Z,312
2017-06-23T03:20:32.807Z,320
2017-06-23T03:20:58.899Z,340
2017-06-23T03:21:24.996Z,360
2017-06-23T03:21:51.104Z,384
2017-06-23T03:22:17.228Z,416
2017-06-23T03:22:43.345Z,440
2017-06-23T03:23:09.513Z,464
2017-06-23T03:23:35.666Z,488
2017-06-23T03:24:01.797Z,512
2017-06-23T03:24:27.895Z,540
2017-06-23T03:24:54.014Z,572
2017-06-23T03:25:20.122Z,600
2017-06-23T03:25:46.244Z,628
2017-06-23T03:26:12.362Z,656
2017-06-23T03:26:38.472Z,684
2017-06-23T03:27:04.600Z,712
2017-06-23T03:27:30.693Z,744
2017-06-23T03:27:56.801Z,780
2017-06-23T03:28:22.956Z,816
2017-06-23T03:28:49.048Z,856
2017-06-23T03:29:15.151Z,888
2017-06-23T03:29:41.295Z,912
2017-06-23T03:30:07.406Z,924
2017-06-23T03:30:33.502Z,924
2017-06-23T03:30:59.619Z,920
2017-06-23T03:31:25.726Z,940
2017-06-23T03:31:51.827Z,1020
2017-06-23T03:32:17.919Z,1080
2017-06-23T03:32:44.023Z,1108
2017-06-23T03:33:10.129Z,1140
2017-06-23T03:33:36.255Z,1172
2017-06-23T03:34:02.349Z,1196
2017-06-23T03:34:28.454Z,1268
2017-06-23T03:34:54.545Z,1336
2017-06-23T03:35:20.648Z,1400
2017-06-23T03:35:46.766Z,1444
2017-06-23T03:36:12.871Z,1472
2017-06-23T03:36:38.978Z,1524
2017-06-23T03:37:05.065Z,1596
2017-06-23T03:37:31.166Z,1656
2017-06-23T03:37:57.274Z,1728
2017-06-23T03:38:23.364Z,1804
2017-06-23T03:38:49.465Z,1864
2017-06-23T03:39:15.572Z,1932
2017-06-23T03:39:41.669Z,2008
2017-06-23T03:40:07.761Z,2080
2017-06-23T03:40:33.864Z,2144
2017-06-23T03:40:59.965Z,2212
2017-06-23T03:41:26.071Z,2260
2017-06-23T03:41:52.537Z,2284
2017-06-23T03:42:18.638Z,2292
2017-06-23T03:42:44.770Z,2284
2017-06-23T03:43:10.892Z,2260
2017-06-23T03:43:37.009Z,2248
2017-06-23T03:44:03.119Z,2256
2017-06-23T03:44:29.244Z,2284
2017-06-23T03:44:55.336Z,2316
2017-06-23T03:45:21.445Z,2352
2017-06-23T03:45:47.547Z,2392
2017-06-23T03:46:13.672Z,2424
2017-06-23T03:46:39.769Z,2452
2017-06-23T03:47:05.859Z,2476
2017-06-23T03:47:31.967Z,2496
2017-06-23T03:47:58.092Z,2520
2017-06-23T03:48:24.211Z,2560
2017-06-23T03:48:50.318Z,2624
2017-06-23T03:49:16.446Z,2680
2017-06-23T03:49:42.538Z,2704
2017-06-23T03:50:08.643Z,2716
2017-06-23T03:50:34.749Z,2732
2017-06-23T03:51:00.839Z,2720
2017-06-23T03:51:26.962Z,2656
2017-06-23T03:51:53.061Z,2600
2017-06-23T03:52:19.192Z,2592
2017-06-23T03:52:45.295Z,2612
2017-06-23T03:53:11.387Z,2636
2017-06-23T03:53:37.492Z,2660
2017-06-23T03:54:03.599Z,2664
2017-06-23T03:54:29.687Z,2660
2017-06-23T03:54:55.787Z,2668
2017-06-23T03:55:21.920Z,2688
2017-06-23T03:55:48.066Z,2716
2017-06-23T03:56:14.163Z,2736
2017-06-23T03:56:40.269Z,2744
2017-06-23T03:57:06.361Z,2728
2017-06-23T03:57:32.452Z,2708
2017-06-23T03:57:58.561Z,2704
2017-06-23T03:58:24.655Z,2728
2017-06-23T03:58:50.745Z,2800
2017-06-23T03:59:16.850Z,2888
2017-06-23T03:59:42.981Z,2960
2017-06-23T04:00:09.075Z,3004
2017-06-23T04:00:35.174Z,3024
2017-06-23T04:01:01.310Z,3032
2017-06-23T04:01:27.400Z,3040
2017-06-23T04:01:53.501Z,3048
2017-06-23T04:02:19.636Z,3064
2017-06-23T04:02:45.725Z,3088
2017-06-23T04:03:11.855Z,3128
2017-06-23T04:03:37.970Z,3184
2017-06-23T04:04:04.075Z,3236
2017-06-23T04:04:30.209Z,3264
2017-06-23T04:04:56.298Z,3344
2017-06-23T04:05:22.425Z,3432
2017-06-23T04:05:48.586Z,3516
2017-06-23T04:06:14.706Z,3588
2017-06-23T04:06:40.852Z,3668
2017-06-23T04:07:07.059Z,3724
2017-06-23T04:07:33.154Z,3776
2017-06-23T04:07:59.247Z,3816
2017-06-23T04:08:25.350Z,3848
2017-06-23T04:08:51.452Z,3884
2017-06-23T04:09:17.557Z,3940
2017-06-23T04:09:43.649Z,3992
2017-06-23T04:10:09.748Z,4008
2017-06-23T04:10:35.854Z,4028
2017-06-23T04:11:01.947Z,4064
2017-06-23T04:11:28.038Z,4088
2017-06-23T04:11:54.177Z,4088
2017-06-23T04:12:20.655Z,4092
2017-06-23T04:12:46.747Z,4092
2017-06-23T04:13:12.854Z,4136
2017-06-23T04:13:38.956Z,4292
2017-06-23T04:14:05.057Z,4444
2017-06-23T04:14:31.177Z,4536
2017-06-23T04:14:57.269Z,4608
2017-06-23T04:15:23.378Z,4652
2017-06-23T04:15:49.475Z,4720
2017-06-23T04:16:15.568Z,4800
2017-06-23T04:16:41.705Z,4864
2017-06-23T04:17:07.834Z,4924
2017-06-23T04:17:33.927Z,4956
2017-06-23T04:18:00.031Z,4964
2017-06-23T04:18:26.139Z,4928
2017-06-23T04:18:52.225Z,4868
2017-06-23T04:19:18.325Z,4772
2017-06-23T04:19:44.422Z,4668
2017-06-23T04:20:10.530Z,4536
2017-06-23T04:20:36.632Z,4404
2017-06-23T04:21:02.723Z,4296
2017-06-23T04:21:28.825Z,4304
2017-06-23T04:21:54.987Z,4396
2017-06-23T04:22:21.101Z,4532
2017-06-23T04:22:47.226Z,4692
2017-06-23T04:23:13.362Z,4860
2017-06-23T04:23:39.453Z,4968
2017-06-23T04:24:05.551Z,5028
2017-06-23T04:24:31.660Z,5100
2017-06-23T04:24:57.811Z,5276
2017-06-23T04:25:23.918Z,5472
2017-06-23T04:25:50.009Z,5628
2017-06-23T04:26:16.108Z,5784
2017-06-23T04:26:42.242Z,5984
2017-06-23T04:27:08.335Z,6260
2017-06-23T04:27:34.457Z,6552
2017-06-23T04:28:00.564Z,6712
2017-06-23T04:28:26.682Z,6792
2017-06-23T04:28:52.773Z,6872
2017-06-23T04:29:18.939Z,6908
2017-06-23T04:29:45.036Z,6908
2017-06-23T04:30:11.152Z,6952
2017-06-23T04:30:37.260Z,6996
2017-06-23T04:31:03.354Z,7056
2017-06-23T04:31:29.461Z,7108
2017-06-23T04:31:55.554Z,7220
2017-06-23T04:32:21.646Z,7384
2017-06-23T04:32:47.756Z,7540
2017-06-23T04:33:13.854Z,7644
2017-06-23T04:33:39.946Z,7668
2017-06-23T04:34:06.085Z,7848
2017-06-23T04:34:32.211Z,7948
2017-06-23T04:34:58.305Z,7936
2017-06-23T04:35:24.409Z,8028
2017-06-23T04:35:50.543Z,8180
2017-06-23T04:36:16.665Z,8328
2017-06-23T04:36:42.761Z,8356
2017-06-23T04:37:08.850Z,8268
2017-06-23T04:37:34.958Z,8264
2017-06-23T04:38:01.058Z,8368
2017-06-23T04:38:28.140Z,8360
2017-06-23T04:38:54.265Z,8476
2017-06-23T04:39:20.374Z,8736
2017-06-23T04:39:46.486Z,8960
2017-06-23T04:40:12.588Z,11000
2017-06-23T04:40:38.695Z,12428
2017-06-23T04:41:04.786Z,13112
2017-06-23T04:41:30.882Z,14032
2017-06-23T04:41:57.044Z,16384
2017-06-23T04:42:23.140Z,16736
2017-06-23T04:42:49.231Z,16832
2017-06-23T04:43:15.370Z,16192
2017-06-23T04:43:41.497Z,16576
2017-06-23T04:44:07.588Z,16832
2017-06-23T04:44:33.694Z,17568
2017-06-23T04:44:59.794Z,17696
2017-06-23T04:45:25.886Z,18848
2017-06-23T04:45:52.012Z,18432
2017-06-23T04:46:18.120Z,18112
2017-06-23T04:46:44.260Z,17344
2017-06-23T04:47:10.383Z,17568
2017-06-23T04:47:36.479Z,17600
2017-06-23T04:48:02.587Z,17536
2017-06-23T04:48:28.689Z,17184
2017-06-23T04:48:54.778Z,17344
2017-06-23T04:49:20.906Z,18080
2017-06-23T04:49:47.015Z,18976
2017-06-23T04:50:13.106Z,19488
2017-06-23T04:50:39.208Z,19840
2017-06-23T04:51:05.316Z,19648
2017-06-23T04:51:31.433Z,20352
2017-06-23T04:51:57.532Z,19584
2017-06-23T04:52:23.641Z,19840
2017-06-23T04:52:49.765Z,20672
2017-06-23T04:53:15.871Z,20928
2017-06-23T04:53:41.987Z,21696
2017-06-23T04:54:08.114Z,23424
2017-06-23T04:54:34.222Z,24128
2017-06-23T04:55:00.316Z,24768
2017-06-23T04:55:26.437Z,23680
2017-06-23T04:55:52.545Z,24064
2017-06-23T04:56:18.668Z,24832
2017-06-23T04:56:44.812Z,24256
2017-06-23T04:57:10.923Z,23552
2017-06-23T04:57:37.023Z,22176
2017-06-23T04:58:03.115Z,23008
2017-06-23T04:58:29.224Z,18464
2017-06-23T04:58:55.319Z,20864
2017-06-23T04:59:21.429Z,25952
2017-06-23T04:59:47.521Z,25824
2017-06-23T05:00:13.614Z,26016
2017-06-23T05:00:39.726Z,27648
2017-06-23T05:01:05.850Z,29120
2017-06-23T05:01:31.964Z,27360
2017-06-23T05:01:58.072Z,29312
2017-06-23T05:02:24.203Z,26016
2017-06-23T05:02:50.297Z,16576
2017-06-23T05:03:16.402Z,15184
2017-06-23T05:03:42.510Z,13300
2017-06-23T05:04:08.655Z,11888
2017-06-23T05:04:34.754Z,11564
2017-06-23T05:05:00.846Z,11472
2017-06-23T05:05:26.952Z,11220
2017-06-23T05:05:53.054Z,10124
2017-06-23T05:06:19.174Z,9136
2017-06-23T05:06:45.279Z,7664
2017-06-23T05:07:11.412Z,6824
2017-06-23T05:07:37.550Z,7308
2017-06-23T05:08:03.753Z,8068
2017-06-23T05:08:29.861Z,8364
2017-06-23T05:08:55.954Z,9128
2017-06-23T05:09:22.055Z,10108
2017-06-23T05:09:48.154Z,25664
2017-06-23T05:10:14.261Z,30656
2017-06-23T05:10:40.394Z,27680
2017-06-23T05:11:06.483Z,17440
2017-06-23T05:11:32.631Z,11452
2017-06-23T05:11:58.769Z,10460
2017-06-23T05:12:24.863Z,9408
2017-06-23T05:12:50.961Z,8760
2017-06-23T05:13:17.096Z,7980
2017-06-23T05:13:43.191Z,8424
2017-06-23T05:14:09.283Z,9304
2017-06-23T05:14:35.396Z,10820
2017-06-23T05:15:01.494Z,15528
2017-06-23T05:15:27.599Z,14916
2017-06-23T05:15:53.692Z,12796
2017-06-23T05:16:19.790Z,10668
2017-06-23T05:16:45.899Z,10840
2017-06-23T05:17:11.994Z,12608
2017-06-23T05:17:38.110Z,13448
2017-06-23T05:18:04.249Z,13536
2017-06-23T05:18:30.349Z,13976
2017-06-23T05:18:56.443Z,15124
2017-06-23T05:19:22.577Z,17216
2017-06-23T05:19:48.678Z,17728
2017-06-23T05:20:14.867Z,15084
2017-06-23T05:20:40.973Z,13812
2017-06-23T05:21:07.067Z,13956
2017-06-23T05:21:33.232Z,14444
2017-06-23T05:21:59.356Z,15072
2017-06-23T05:22:25.456Z,15432
2017-06-23T05:22:51.562Z,14972
2017-06-23T05:23:17.690Z,14700
2017-06-23T05:23:43.814Z,14672
2017-06-23T05:24:09.919Z,14236
2017-06-23T05:24:36.041Z,14980
2017-06-23T05:25:02.144Z,16216
2017-06-23T05:25:28.269Z,17024
2017-06-23T05:25:54.405Z,16244
2017-06-23T05:26:20.499Z,17280
2017-06-23T05:26:46.599Z,17216
2017-06-23T05:27:12.704Z,17568
2017-06-23T05:27:38.878Z,18720
2017-06-23T05:28:04.971Z,18496
2017-06-23T05:28:31.081Z,19648
2017-06-23T05:28:57.207Z,18784
2017-06-23T05:29:23.353Z,17344
2017-06-23T05:29:49.461Z,15216
2017-06-23T05:30:15.593Z,13296
2017-06-23T05:30:41.709Z,12080
2017-06-23T05:31:07.814Z,11576
2017-06-23T05:31:33.923Z,11432
2017-06-23T05:32:00.045Z,12208
2017-06-23T05:32:26.145Z,13524
2017-06-23T05:32:52.235Z,14868
2017-06-23T05:33:18.394Z,15516
2017-06-23T05:33:44.524Z,14804
2017-06-23T05:34:10.617Z,15404
2017-06-23T05:34:36.749Z,15644
2017-06-23T05:35:02.856Z,16544
2017-06-23T05:35:28.944Z,15640
2017-06-23T05:35:55.044Z,14764
2017-06-23T05:36:21.180Z,15612
2017-06-23T05:36:47.272Z,16916
2017-06-23T05:37:13.392Z,17760
2017-06-23T05:37:39.470Z,18464
2017-06-23T05:38:05.677Z,20288
2017-06-23T05:38:31.841Z,21568
2017-06-23T05:38:57.954Z,21504
2017-06-23T05:39:24.084Z,21568
2017-06-23T05:39:50.193Z,21696
2017-06-23T05:40:16.312Z,21216
2017-06-23T05:40:42.436Z,20256
2017-06-23T05:41:08.547Z,19392
2017-06-23T05:41:34.644Z,17504
2017-06-23T05:42:00.736Z,16468
2017-06-23T05:42:26.845Z,15548
2017-06-23T05:42:52.942Z,14324
2017-06-23T05:43:19.075Z,13472
2017-06-23T05:43:45.167Z,13588
2017-06-23T05:44:11.266Z,14768
2017-06-23T05:44:37.374Z,15824
2017-06-23T05:45:03.468Z,17112
2017-06-23T05:45:29.586Z,16584
2017-06-23T05:45:55.698Z,16020
2017-06-23T05:46:21.797Z,15056
2017-06-23T05:46:47.886Z,15492
2017-06-23T05:47:13.994Z,16304
2017-06-23T05:47:40.122Z,17232
2017-06-23T05:48:06.215Z,19040
2017-06-23T05:48:32.320Z,20224
2017-06-23T05:48:58.410Z,19872
2017-06-23T05:49:24.523Z,21984
2017-06-23T05:49:50.622Z,23424
2017-06-23T05:50:16.713Z,24224
2017-06-23T05:50:42.823Z,22720
2017-06-23T05:51:08.953Z,20640
2017-06-23T05:51:35.046Z,20352
2017-06-23T05:52:01.150Z,20000
2017-06-23T05:52:27.258Z,17760
2017-06-23T05:52:53.347Z,14732
2017-06-23T05:53:19.448Z,13288
2017-06-23T05:53:45.582Z,13264
2017-06-23T05:54:11.696Z,13764
2017-06-23T05:54:37.828Z,14188
2017-06-23T05:55:03.917Z,13984
2017-06-23T05:55:30.022Z,13252
2017-06-23T05:55:56.130Z,12272
2017-06-23T05:56:22.223Z,11672
2017-06-23T05:56:48.346Z,11536
2017-06-23T05:57:14.454Z,11264
2017-06-23T05:57:40.547Z,11240
2017-06-23T05:58:06.644Z,11564
2017-06-23T05:58:32.780Z,12044
2017-06-23T05:58:58.878Z,12932
2017-06-23T05:59:24.970Z,14400
2017-06-23T05:59:51.073Z,16200
2017-06-23T06:00:17.224Z,19232
2017-06-23T06:00:43.332Z,21088
2017-06-23T06:01:09.448Z,22016
2017-06-23T06:01:35.548Z,21536
2017-06-23T06:02:01.659Z,21216
2017-06-23T06:02:27.778Z,22208
2017-06-23T06:02:53.869Z,21344
2017-06-23T06:03:19.979Z,18944
2017-06-23T06:03:46.078Z,16840
2017-06-23T06:04:12.194Z,16060